createdAt,value
2023-01-18T00:00:16.178Z,37.20
2023-01-18T00:00:48.833Z,38.20
2023-01-18T00:01:21.546Z,37.50
2023-01-18T00:01:54.252Z,37.00
2023-01-18T00:02:26.923Z,40.30
2023-01-18T00:02:59.909Z,38.00
2023-01-18T00:03:26.238Z,40.00
2023-01-18T00:03:58.917Z,38.60
2023-01-18T00:04:31.578Z,38.80
2023-01-18T00:05:04.369Z,40.30
2023-01-18T00:05:37.039Z,41.50
2023-01-18T00:06:09.758Z,38.30
2023-01-18T00:06:42.415Z,38.30
2023-01-18T00:07:15.086Z,40.60
2023-01-18T00:07:47.766Z,40.70
2023-01-18T00:08:20.433Z,39.50
2023-01-18T00:08:53.099Z,39.40
2023-01-18T00:09:25.772Z,40.70
2023-01-18T00:09:58.439Z,40.40
2023-01-18T00:10:31.119Z,35.50
2023-01-18T00:11:03.813Z,39.60
2023-01-18T00:11:36.462Z,40.00
2023-01-18T00:12:09.141Z,41.60
2023-01-18T00:12:41.820Z,41.00
2023-01-18T00:13:14.492Z,40.80
2023-01-18T00:13:47.194Z,38.40
2023-01-18T00:14:19.852Z,43.00
2023-01-18T00:14:52.513Z,40.90
2023-01-18T00:15:25.201Z,43.00
2023-01-18T00:15:57.886Z,40.90
2023-01-18T00:16:30.632Z,40.80
2023-01-18T00:17:03.320Z,39.20
2023-01-18T00:17:36.019Z,37.70
2023-01-18T00:18:08.688Z,39.30
2023-01-18T00:18:41.389Z,41.90
2023-01-18T00:19:14.077Z,40.50
2023-01-18T00:19:46.722Z,40.20
2023-01-18T00:20:19.396Z,41.30
2023-01-18T00:20:52.087Z,40.40
2023-01-18T00:21:24.752Z,40.00
2023-01-18T00:21:57.413Z,42.90
2023-01-18T00:22:30.086Z,42.10
2023-01-18T00:23:02.752Z,41.10
2023-01-18T00:23:35.436Z,41.20
2023-01-18T00:24:08.125Z,40.30
2023-01-18T00:24:40.809Z,37.40
2023-01-18T00:25:13.472Z,38.00
2023-01-18T00:25:46.139Z,35.70
2023-01-18T00:26:18.835Z,38.40
2023-01-18T00:26:51.477Z,40.30
2023-01-18T00:27:24.156Z,33.40
2023-01-18T00:27:56.832Z,33.60
2023-01-18T00:28:29.503Z,36.80
2023-01-18T00:29:02.193Z,34.20
2023-01-18T00:29:34.871Z,32.40
2023-01-18T00:30:07.547Z,32.10
2023-01-18T00:30:40.220Z,30.60
2023-01-18T00:31:12.958Z,34.40
2023-01-18T00:31:45.735Z,34.10
2023-01-18T00:32:18.391Z,30.70
2023-01-18T00:32:51.074Z,29.70
2023-01-18T00:33:23.766Z,32.70
2023-01-18T00:33:54.835Z,33.30
2023-01-18T00:34:27.494Z,31.50
2023-01-18T00:35:00.166Z,26.90
2023-01-18T00:35:32.841Z,28.70
2023-01-18T00:36:05.513Z,29.30
2023-01-18T00:36:38.189Z,25.90
2023-01-18T00:37:10.864Z,26.40
2023-01-18T00:37:43.517Z,25.20
2023-01-18T00:38:16.201Z,25.20
2023-01-18T00:38:48.870Z,27.60
2023-01-18T00:39:21.594Z,26.60
2023-01-18T00:39:54.265Z,26.90
2023-01-18T00:40:26.927Z,26.10
2023-01-18T00:40:59.583Z,25.10
2023-01-18T00:41:32.292Z,24.30
2023-01-18T00:42:04.952Z,25.00
2023-01-18T00:42:37.591Z,25.00
2023-01-18T00:43:10.261Z,22.70
2023-01-18T00:43:42.945Z,24.40
2023-01-18T00:44:15.630Z,24.00
2023-01-18T00:44:48.301Z,21.00
2023-01-18T00:45:20.986Z,22.70
2023-01-18T00:45:53.713Z,18.20
2023-01-18T00:46:26.368Z,20.60
2023-01-18T00:46:59.056Z,20.50
2023-01-18T00:47:31.695Z,21.50
2023-01-18T00:48:04.372Z,18.30
2023-01-18T00:48:37.076Z,18.20
2023-01-18T00:49:09.742Z,18.50
2023-01-18T00:49:42.420Z,18.60
2023-01-18T00:50:15.102Z,20.20
2023-01-18T00:50:47.759Z,21.00
2023-01-18T00:51:20.432Z,21.20
2023-01-18T00:51:53.107Z,20.60
2023-01-18T00:52:25.772Z,23.30
2023-01-18T00:52:58.967Z,21.10
2023-01-18T00:53:25.379Z,22.20
2023-01-18T00:53:58.048Z,19.00
2023-01-18T00:54:30.735Z,18.70
2023-01-18T00:55:03.419Z,20.70
2023-01-18T00:55:36.098Z,21.60
2023-01-18T00:56:08.837Z,22.80
2023-01-18T00:56:41.523Z,22.40
2023-01-18T00:57:14.168Z,22.80
2023-01-18T00:57:46.851Z,21.60
2023-01-18T00:58:19.517Z,24.00
2023-01-18T00:58:52.198Z,21.30
2023-01-18T00:59:24.856Z,22.80
2023-01-18T00:59:57.550Z,21.70
2023-01-18T01:00:30.220Z,23.10
2023-01-18T01:01:03.021Z,23.70
2023-01-18T01:01:35.915Z,23.50
2023-01-18T01:02:08.713Z,21.90
2023-01-18T01:02:41.478Z,23.10
2023-01-18T01:03:14.150Z,20.80
2023-01-18T01:03:46.821Z,23.50
2023-01-18T01:04:19.492Z,23.30
2023-01-18T01:04:52.165Z,20.70
2023-01-18T01:05:24.848Z,21.60
2023-01-18T01:05:57.509Z,21.50
2023-01-18T01:06:30.190Z,19.40
2023-01-18T01:07:02.866Z,18.70
2023-01-18T01:07:35.599Z,20.10
2023-01-18T01:08:08.287Z,16.40
2023-01-18T01:08:40.950Z,16.00
2023-01-18T01:09:13.607Z,18.00
2023-01-18T01:09:46.287Z,16.10
2023-01-18T01:10:18.955Z,16.30
2023-01-18T01:10:51.633Z,15.20
2023-01-18T01:11:24.300Z,13.20
2023-01-18T01:11:57.005Z,15.20
2023-01-18T01:12:29.657Z,15.70
2023-01-18T01:13:02.337Z,14.40
2023-01-18T01:13:35.017Z,15.50
2023-01-18T01:14:07.699Z,15.90
2023-01-18T01:14:40.355Z,14.80
2023-01-18T01:15:13.031Z,17.90
2023-01-18T01:15:45.727Z,18.60
2023-01-18T01:16:18.539Z,15.30
2023-01-18T01:16:51.284Z,13.90
2023-01-18T01:17:23.983Z,13.50
2023-01-18T01:17:56.673Z,15.00
2023-01-18T01:18:29.314Z,14.60
2023-01-18T01:19:01.975Z,15.10
2023-01-18T01:19:34.650Z,16.20
2023-01-18T01:20:07.326Z,12.80
2023-01-18T01:20:39.987Z,12.50
2023-01-18T01:21:12.671Z,13.60
2023-01-18T01:21:45.347Z,16.90
2023-01-18T01:22:17.999Z,16.00
2023-01-18T01:22:50.679Z,15.50
2023-01-18T01:23:23.337Z,16.90
2023-01-18T01:23:56.012Z,15.80
2023-01-18T01:24:27.102Z,14.70
2023-01-18T01:24:59.773Z,15.80
2023-01-18T01:25:32.444Z,13.40
2023-01-18T01:26:05.108Z,13.20
2023-01-18T01:26:37.798Z,14.00
2023-01-18T01:27:10.503Z,16.30
2023-01-18T01:27:43.156Z,15.00
2023-01-18T01:28:15.832Z,15.50
2023-01-18T01:28:48.486Z,14.40
2023-01-18T01:29:21.176Z,14.30
2023-01-18T01:29:53.848Z,11.50
2023-01-18T01:30:26.572Z,14.70
2023-01-18T01:30:59.279Z,15.40
2023-01-18T01:31:31.975Z,13.50
2023-01-18T01:32:04.638Z,13.10
2023-01-18T01:32:37.311Z,12.60
2023-01-18T01:33:09.986Z,15.60
2023-01-18T01:33:42.682Z,14.80
2023-01-18T01:34:15.324Z,14.60
2023-01-18T01:34:47.995Z,13.20
2023-01-18T01:35:20.660Z,16.70
2023-01-18T01:35:53.344Z,13.60
2023-01-18T01:36:26.002Z,13.80
2023-01-18T01:36:58.696Z,15.20
2023-01-18T01:37:31.383Z,12.20
2023-01-18T01:38:04.040Z,15.00
2023-01-18T01:38:36.705Z,14.10
2023-01-18T01:39:09.396Z,16.30
2023-01-18T01:39:42.054Z,15.90
2023-01-18T01:40:14.722Z,13.10
2023-01-18T01:40:47.388Z,13.70
2023-01-18T01:41:20.075Z,15.20
2023-01-18T01:41:52.739Z,14.50
2023-01-18T01:42:25.440Z,15.80
2023-01-18T01:42:58.494Z,14.60
2023-01-18T01:43:24.897Z,13.80
2023-01-18T01:43:57.563Z,15.90
2023-01-18T01:44:30.235Z,13.40
2023-01-18T01:45:02.904Z,15.50
2023-01-18T01:45:35.593Z,16.30
2023-01-18T01:46:08.305Z,15.70
2023-01-18T01:46:40.989Z,13.50
2023-01-18T01:47:13.652Z,15.70
2023-01-18T01:47:46.327Z,15.80
2023-01-18T01:48:18.985Z,16.10
2023-01-18T01:48:51.668Z,14.60
2023-01-18T01:49:24.343Z,14.60
2023-01-18T01:49:57.016Z,16.70
2023-01-18T01:50:29.689Z,14.80
2023-01-18T01:51:02.363Z,15.70
2023-01-18T01:51:35.038Z,15.10
2023-01-18T01:52:07.731Z,15.20
2023-01-18T01:52:40.405Z,15.80
2023-01-18T01:53:13.077Z,16.60
2023-01-18T01:53:45.750Z,15.90
2023-01-18T01:54:18.423Z,15.10
2023-01-18T01:54:51.098Z,13.90
2023-01-18T01:55:23.780Z,15.10
2023-01-18T01:55:56.437Z,13.40
2023-01-18T01:56:29.227Z,13.20
2023-01-18T01:57:01.919Z,14.60
2023-01-18T01:57:34.617Z,14.40
2023-01-18T01:58:07.259Z,26.70
2023-01-18T01:58:39.936Z,18.40
2023-01-18T01:59:12.613Z,16.80
2023-01-18T01:59:45.328Z,16.20
2023-01-18T02:00:18.017Z,17.30
2023-01-18T02:00:50.753Z,15.00
2023-01-18T02:01:23.638Z,15.20
2023-01-18T02:01:56.450Z,16.70
2023-01-18T02:02:29.265Z,15.40
2023-01-18T02:03:02.144Z,17.10
2023-01-18T02:03:34.907Z,15.00
2023-01-18T02:04:07.568Z,15.20
2023-01-18T02:04:40.262Z,15.10
2023-01-18T02:05:12.944Z,13.50
2023-01-18T02:05:45.609Z,13.60
2023-01-18T02:06:18.267Z,14.80
2023-01-18T02:06:50.934Z,14.50
2023-01-18T02:07:23.595Z,15.20
2023-01-18T02:07:56.293Z,15.90
2023-01-18T02:08:28.967Z,15.80
2023-01-18T02:09:01.633Z,14.60
2023-01-18T02:09:34.303Z,16.40
2023-01-18T02:10:06.987Z,15.00
2023-01-18T02:10:39.657Z,14.10
2023-01-18T02:11:12.315Z,13.70
2023-01-18T02:11:44.982Z,15.00
2023-01-18T02:12:17.654Z,16.40
2023-01-18T02:12:50.374Z,15.50
2023-01-18T02:13:23.027Z,15.50
2023-01-18T02:13:55.699Z,15.80
2023-01-18T02:14:28.370Z,17.80
2023-01-18T02:15:01.051Z,16.40
2023-01-18T02:15:33.712Z,16.70
2023-01-18T02:16:06.384Z,16.10
2023-01-18T02:16:39.112Z,16.40
2023-01-18T02:17:11.755Z,15.80
2023-01-18T02:17:44.433Z,16.40
2023-01-18T02:18:17.143Z,18.20
2023-01-18T02:18:49.787Z,17.20
2023-01-18T02:19:22.466Z,16.20
2023-01-18T02:19:55.122Z,16.80
2023-01-18T02:20:27.789Z,17.70
2023-01-18T02:21:00.450Z,16.30
2023-01-18T02:21:33.122Z,16.10
2023-01-18T02:22:05.793Z,16.90
2023-01-18T02:22:38.459Z,16.80
2023-01-18T02:23:11.159Z,16.30
2023-01-18T02:23:43.815Z,17.00
2023-01-18T02:24:16.488Z,16.30
2023-01-18T02:24:49.169Z,17.00
2023-01-18T02:25:21.820Z,19.20
2023-01-18T02:25:54.504Z,15.70
2023-01-18T02:26:27.165Z,17.00
2023-01-18T02:26:59.832Z,16.40
2023-01-18T02:27:32.509Z,16.80
2023-01-18T02:28:05.212Z,19.00
2023-01-18T02:28:37.878Z,15.70
2023-01-18T02:29:10.549Z,15.10
2023-01-18T02:29:43.220Z,14.70
2023-01-18T02:30:15.901Z,16.20
2023-01-18T02:30:48.583Z,15.50
2023-01-18T02:31:21.254Z,14.30
2023-01-18T02:31:53.926Z,16.10
2023-01-18T02:32:26.594Z,17.10
2023-01-18T02:32:59.722Z,16.00
2023-01-18T02:33:26.129Z,16.00
2023-01-18T02:33:58.787Z,18.70
2023-01-18T02:34:31.470Z,15.20
2023-01-18T02:35:04.129Z,13.70
2023-01-18T02:35:36.797Z,16.10
2023-01-18T02:36:09.480Z,18.20
2023-01-18T02:36:42.141Z,16.50
2023-01-18T02:37:14.811Z,16.10
2023-01-18T02:37:47.493Z,17.20
2023-01-18T02:38:20.158Z,16.40
2023-01-18T02:38:52.854Z,18.40
2023-01-18T02:39:25.509Z,15.80
2023-01-18T02:39:58.178Z,16.10
2023-01-18T02:40:30.835Z,16.70
2023-01-18T02:41:03.500Z,16.50
2023-01-18T02:41:36.171Z,15.10
2023-01-18T02:42:08.839Z,17.50
2023-01-18T02:42:41.519Z,17.10
2023-01-18T02:43:14.253Z,16.30
2023-01-18T02:43:46.948Z,15.90
2023-01-18T02:44:19.639Z,17.60
2023-01-18T02:44:52.313Z,16.40
2023-01-18T02:45:24.991Z,17.40
2023-01-18T02:45:57.733Z,16.70
2023-01-18T02:46:30.406Z,14.70
2023-01-18T02:47:03.055Z,17.60
2023-01-18T02:47:35.738Z,15.10
2023-01-18T02:48:08.415Z,14.90
2023-01-18T02:48:41.094Z,20.30
2023-01-18T02:49:13.770Z,18.00
2023-01-18T02:49:46.444Z,15.30
2023-01-18T02:50:19.123Z,16.80
2023-01-18T02:50:51.791Z,16.00
2023-01-18T02:51:24.461Z,18.40
2023-01-18T02:51:57.121Z,16.40
2023-01-18T02:52:29.788Z,16.30
2023-01-18T02:53:02.454Z,18.00
2023-01-18T02:53:35.130Z,16.10
2023-01-18T02:54:07.822Z,18.20
2023-01-18T02:54:40.501Z,16.80
2023-01-18T02:55:13.157Z,16.60
2023-01-18T02:55:45.828Z,19.70
2023-01-18T02:56:18.496Z,17.30
2023-01-18T02:56:51.163Z,17.60
2023-01-18T02:57:23.858Z,18.60
2023-01-18T02:57:56.524Z,17.00
2023-01-18T02:58:29.241Z,19.50
2023-01-18T02:59:01.949Z,17.90
2023-01-18T02:59:34.617Z,18.30
2023-01-18T03:00:07.283Z,19.10
2023-01-18T03:00:39.952Z,16.60
2023-01-18T03:01:12.812Z,19.30
2023-01-18T03:01:45.578Z,16.60
2023-01-18T03:02:18.258Z,16.40
2023-01-18T03:02:50.950Z,17.20
2023-01-18T03:03:23.629Z,15.60
2023-01-18T03:03:56.317Z,16.80
2023-01-18T03:04:29.007Z,19.30
2023-01-18T03:05:01.698Z,18.00
2023-01-18T03:05:34.368Z,16.80
2023-01-18T03:06:07.038Z,18.00
2023-01-18T03:06:39.691Z,15.70
2023-01-18T03:07:12.389Z,18.20
2023-01-18T03:07:45.088Z,16.20
2023-01-18T03:08:17.778Z,16.60
2023-01-18T03:08:50.439Z,17.80
2023-01-18T03:09:23.112Z,16.40
2023-01-18T03:09:55.792Z,16.20
2023-01-18T03:10:28.471Z,16.40
2023-01-18T03:11:01.177Z,15.40
2023-01-18T03:11:33.812Z,14.80
2023-01-18T03:12:06.475Z,16.10
2023-01-18T03:12:39.138Z,17.50
2023-01-18T03:13:11.804Z,16.50
2023-01-18T03:13:44.506Z,18.00
2023-01-18T03:14:17.160Z,15.40
2023-01-18T03:14:49.830Z,18.00
2023-01-18T03:15:22.500Z,17.30
2023-01-18T03:15:55.262Z,15.10
2023-01-18T03:16:27.938Z,17.60
2023-01-18T03:17:00.593Z,17.50
2023-01-18T03:17:33.258Z,17.70
2023-01-18T03:18:05.932Z,16.80
2023-01-18T03:18:38.606Z,18.00
2023-01-18T03:19:11.277Z,15.30
2023-01-18T03:19:43.969Z,17.70
2023-01-18T03:20:16.642Z,18.80
2023-01-18T03:20:49.308Z,17.70
2023-01-18T03:21:21.977Z,20.10
2023-01-18T03:21:54.638Z,17.60
2023-01-18T03:22:27.313Z,16.50
2023-01-18T03:23:00.386Z,15.30
2023-01-18T03:23:26.789Z,17.10
2023-01-18T03:23:59.460Z,16.70
2023-01-18T03:24:32.113Z,19.30
2023-01-18T03:25:04.802Z,16.80
2023-01-18T03:25:37.471Z,16.00
2023-01-18T03:26:10.139Z,17.80
2023-01-18T03:26:42.841Z,17.10
2023-01-18T03:27:15.497Z,18.20
2023-01-18T03:27:48.152Z,18.60
2023-01-18T03:28:20.834Z,17.80
2023-01-18T03:28:53.517Z,17.90
2023-01-18T03:29:26.172Z,18.30
2023-01-18T03:29:58.837Z,16.30
2023-01-18T03:30:31.552Z,16.80
2023-01-18T03:31:04.261Z,19.70
2023-01-18T03:31:36.923Z,17.20
2023-01-18T03:32:09.601Z,18.50
2023-01-18T03:32:42.268Z,16.00
2023-01-18T03:33:14.937Z,17.00
2023-01-18T03:33:47.637Z,18.90
2023-01-18T03:34:20.300Z,18.30
2023-01-18T03:34:52.972Z,17.60
2023-01-18T03:35:25.651Z,18.10
2023-01-18T03:35:58.324Z,20.20
2023-01-18T03:36:30.995Z,18.40
2023-01-18T03:37:03.677Z,19.00
2023-01-18T03:37:36.342Z,17.70
2023-01-18T03:38:09.011Z,18.20
2023-01-18T03:38:41.685Z,20.70
2023-01-18T03:39:14.352Z,17.90
2023-01-18T03:39:47.021Z,19.40
2023-01-18T03:40:19.936Z,20.00
2023-01-18T03:40:52.606Z,17.00
2023-01-18T03:41:25.291Z,18.00
2023-01-18T03:41:57.961Z,17.30
2023-01-18T03:42:30.636Z,19.40
2023-01-18T03:43:03.314Z,18.30
2023-01-18T03:43:36.057Z,22.70
2023-01-18T03:44:08.747Z,16.90
2023-01-18T03:44:41.382Z,17.70
2023-01-18T03:45:14.056Z,17.90
2023-01-18T03:45:46.719Z,18.90
2023-01-18T03:46:19.438Z,17.70
2023-01-18T03:46:52.087Z,18.20
2023-01-18T03:47:24.764Z,18.80
2023-01-18T03:47:57.432Z,18.60
2023-01-18T03:48:30.105Z,18.40
2023-01-18T03:49:02.776Z,19.10
2023-01-18T03:49:35.486Z,18.90
2023-01-18T03:50:08.146Z,18.10
2023-01-18T03:50:40.836Z,17.80
2023-01-18T03:51:13.497Z,18.40
2023-01-18T03:51:46.179Z,20.10
2023-01-18T03:52:18.846Z,19.10
2023-01-18T03:52:51.522Z,20.40
2023-01-18T03:53:24.201Z,18.10
2023-01-18T03:53:56.865Z,17.90
2023-01-18T03:54:29.538Z,20.60
2023-01-18T03:55:02.206Z,20.00
2023-01-18T03:55:34.868Z,18.80
2023-01-18T03:56:07.537Z,21.70
2023-01-18T03:56:40.234Z,23.40
2023-01-18T03:57:12.909Z,20.90
2023-01-18T03:57:45.586Z,20.30
2023-01-18T03:58:18.244Z,18.50
2023-01-18T03:58:50.888Z,20.40
2023-01-18T03:59:23.585Z,20.10
2023-01-18T03:59:56.239Z,19.30
2023-01-18T04:00:28.909Z,21.70
2023-01-18T04:01:01.610Z,20.20
2023-01-18T04:01:34.370Z,20.50
2023-01-18T04:02:07.294Z,19.20
2023-01-18T04:02:40.142Z,17.40
2023-01-18T04:03:12.875Z,19.30
2023-01-18T04:03:45.530Z,19.90
2023-01-18T04:04:18.196Z,18.60
2023-01-18T04:04:50.858Z,18.80
2023-01-18T04:05:23.522Z,18.90
2023-01-18T04:05:56.193Z,20.20
2023-01-18T04:06:28.889Z,20.30
2023-01-18T04:07:01.566Z,21.00
2023-01-18T04:07:34.248Z,19.80
2023-01-18T04:08:06.889Z,18.00
2023-01-18T04:08:39.557Z,21.20
2023-01-18T04:09:12.235Z,22.10
2023-01-18T04:09:44.888Z,17.90
2023-01-18T04:10:17.555Z,20.60
2023-01-18T04:10:50.251Z,21.30
2023-01-18T04:11:22.927Z,17.40
2023-01-18T04:11:55.606Z,18.90
2023-01-18T04:12:28.266Z,18.80
2023-01-18T04:13:01.661Z,17.10
2023-01-18T04:13:27.954Z,18.30
2023-01-18T04:14:00.650Z,20.70
2023-01-18T04:14:33.330Z,17.60
2023-01-18T04:15:05.978Z,20.80
2023-01-18T04:15:38.788Z,19.80
2023-01-18T04:16:11.515Z,21.40
2023-01-18T04:16:44.209Z,20.40
2023-01-18T04:17:16.924Z,20.80
2023-01-18T04:17:49.589Z,18.90
2023-01-18T04:18:22.273Z,18.80
2023-01-18T04:18:54.936Z,19.40
2023-01-18T04:19:27.620Z,17.40
2023-01-18T04:20:00.283Z,19.70
2023-01-18T04:20:32.996Z,18.40
2023-01-18T04:21:05.662Z,17.00
2023-01-18T04:21:38.338Z,18.40
2023-01-18T04:22:11.006Z,19.50
2023-01-18T04:22:43.688Z,18.30
2023-01-18T04:23:16.387Z,17.90
2023-01-18T04:23:49.035Z,17.50
2023-01-18T04:24:21.713Z,18.70
2023-01-18T04:24:54.374Z,18.90
2023-01-18T04:25:27.056Z,18.40
2023-01-18T04:25:59.708Z,19.00
2023-01-18T04:26:32.378Z,19.90
2023-01-18T04:27:05.073Z,17.70
2023-01-18T04:27:37.739Z,18.50
2023-01-18T04:28:10.411Z,18.70
2023-01-18T04:28:43.077Z,17.50
2023-01-18T04:29:15.750Z,18.80
2023-01-18T04:29:48.462Z,17.80
2023-01-18T04:30:21.098Z,20.00
2023-01-18T04:30:53.819Z,17.40
2023-01-18T04:31:26.477Z,16.50
2023-01-18T04:31:59.152Z,18.40
2023-01-18T04:32:31.798Z,18.10
2023-01-18T04:33:04.472Z,20.40
2023-01-18T04:33:37.154Z,18.30
2023-01-18T04:34:09.818Z,20.20
2023-01-18T04:34:42.475Z,20.80
2023-01-18T04:35:15.157Z,18.90
2023-01-18T04:35:47.838Z,17.40
2023-01-18T04:36:20.500Z,18.70
2023-01-18T04:36:53.183Z,19.90
2023-01-18T04:37:25.857Z,19.30
2023-01-18T04:37:58.535Z,18.50
2023-01-18T04:38:31.209Z,20.30
2023-01-18T04:39:03.887Z,17.10
2023-01-18T04:39:36.558Z,16.90
2023-01-18T04:40:09.252Z,19.00
2023-01-18T04:40:41.916Z,17.70
2023-01-18T04:41:14.585Z,18.60
2023-01-18T04:41:47.255Z,16.90
2023-01-18T04:42:19.944Z,19.40
2023-01-18T04:42:52.603Z,16.50
2023-01-18T04:43:25.282Z,19.10
2023-01-18T04:43:57.949Z,18.00
2023-01-18T04:44:30.616Z,19.60
2023-01-18T04:45:03.324Z,16.50
2023-01-18T04:45:35.979Z,18.20
2023-01-18T04:46:08.650Z,17.90
2023-01-18T04:46:41.366Z,18.00
2023-01-18T04:47:14.028Z,17.20
2023-01-18T04:47:46.701Z,18.80
2023-01-18T04:48:19.370Z,18.40
2023-01-18T04:48:52.086Z,20.20
2023-01-18T04:49:24.711Z,19.70
2023-01-18T04:49:57.393Z,18.90
2023-01-18T04:50:30.052Z,19.30
2023-01-18T04:51:02.731Z,16.80
2023-01-18T04:51:35.410Z,18.90
2023-01-18T04:52:08.088Z,17.80
2023-01-18T04:52:40.772Z,18.90
2023-01-18T04:53:13.457Z,18.80
2023-01-18T04:53:46.113Z,20.80
2023-01-18T04:54:18.786Z,17.00
2023-01-18T04:54:51.454Z,18.90
2023-01-18T04:55:24.138Z,18.40
2023-01-18T04:55:56.815Z,18.90
2023-01-18T04:56:29.483Z,20.00
2023-01-18T04:57:02.181Z,18.90
2023-01-18T04:57:34.853Z,18.70
2023-01-18T04:58:07.519Z,16.80
2023-01-18T04:58:40.210Z,18.10
2023-01-18T04:59:12.855Z,16.10
2023-01-18T04:59:45.522Z,17.20
2023-01-18T05:00:18.215Z,15.90
2023-01-18T05:00:51.056Z,16.60
2023-01-18T05:01:23.942Z,17.80
2023-01-18T05:01:56.689Z,17.50
2023-01-18T05:02:29.413Z,19.50
2023-01-18T05:03:02.127Z,16.90
2023-01-18T05:03:34.791Z,16.80
2023-01-18T05:04:07.478Z,16.80
2023-01-18T05:04:38.557Z,18.30
2023-01-18T05:05:11.229Z,20.20
2023-01-18T05:05:43.901Z,19.40
2023-01-18T05:06:16.586Z,18.40
2023-01-18T05:06:49.260Z,20.60
2023-01-18T05:07:21.924Z,18.10
2023-01-18T05:07:54.598Z,17.90
2023-01-18T05:08:27.268Z,19.50
2023-01-18T05:08:59.936Z,18.10
2023-01-18T05:09:32.607Z,17.50
2023-01-18T05:10:05.271Z,19.20
2023-01-18T05:10:37.954Z,18.20
2023-01-18T05:11:10.614Z,20.30
2023-01-18T05:11:43.285Z,18.20
2023-01-18T05:12:15.966Z,18.00
2023-01-18T05:12:48.681Z,16.90
2023-01-18T05:13:21.324Z,18.50
2023-01-18T05:13:54.010Z,17.00
2023-01-18T05:14:26.671Z,19.90
2023-01-18T05:14:59.340Z,18.60
2023-01-18T05:15:32.045Z,18.70
2023-01-18T05:16:06.217Z,19.90
2023-01-18T05:16:32.633Z,17.20
2023-01-18T05:17:05.304Z,18.40
2023-01-18T05:17:38.001Z,18.70
2023-01-18T05:18:10.662Z,17.10
2023-01-18T05:18:43.338Z,17.50
2023-01-18T05:19:15.992Z,17.80
2023-01-18T05:19:48.653Z,17.60
2023-01-18T05:20:21.314Z,17.60
2023-01-18T05:20:54.006Z,17.40
2023-01-18T05:21:26.666Z,18.80
2023-01-18T05:21:59.338Z,18.50
2023-01-18T05:22:32.008Z,15.60
2023-01-18T05:23:04.693Z,15.40
2023-01-18T05:23:37.362Z,17.00
2023-01-18T05:24:10.050Z,18.90
2023-01-18T05:24:42.696Z,15.90
2023-01-18T05:25:15.379Z,16.80
2023-01-18T05:25:48.060Z,16.80
2023-01-18T05:26:20.734Z,16.20
2023-01-18T05:26:53.389Z,15.10
2023-01-18T05:27:26.061Z,18.30
2023-01-18T05:27:58.753Z,16.80
2023-01-18T05:28:31.425Z,16.90
2023-01-18T05:29:04.111Z,17.50
2023-01-18T05:29:36.765Z,19.60
2023-01-18T05:30:09.437Z,16.40
2023-01-18T05:30:42.133Z,19.20
2023-01-18T05:31:14.894Z,15.50
2023-01-18T05:31:47.617Z,16.20
2023-01-18T05:32:20.288Z,16.90
2023-01-18T05:32:52.978Z,16.10
2023-01-18T05:33:25.649Z,17.50
2023-01-18T05:33:58.332Z,17.90
2023-01-18T05:34:30.991Z,16.60
2023-01-18T05:35:03.661Z,17.20
2023-01-18T05:35:36.340Z,15.30
2023-01-18T05:36:09.019Z,17.60
2023-01-18T05:36:41.718Z,16.70
2023-01-18T05:37:14.400Z,16.30
2023-01-18T05:37:47.091Z,16.00
2023-01-18T05:38:19.773Z,17.50
2023-01-18T05:38:52.437Z,15.60
2023-01-18T05:39:25.152Z,16.20
2023-01-18T05:39:57.821Z,17.10
2023-01-18T05:40:30.486Z,17.60
2023-01-18T05:41:03.166Z,16.00
2023-01-18T05:41:35.820Z,16.50
2023-01-18T05:42:08.513Z,15.70
2023-01-18T05:42:41.177Z,15.70
2023-01-18T05:43:13.839Z,17.40
2023-01-18T05:43:46.510Z,16.40
2023-01-18T05:44:19.163Z,17.00
2023-01-18T05:44:51.844Z,16.70
2023-01-18T05:45:24.496Z,16.20
2023-01-18T05:45:57.319Z,18.20
2023-01-18T05:46:29.979Z,15.30
2023-01-18T05:47:02.645Z,14.60
2023-01-18T05:47:35.319Z,14.80
2023-01-18T05:48:08.020Z,15.50
2023-01-18T05:48:40.700Z,14.40
2023-01-18T05:49:13.403Z,17.10
2023-01-18T05:49:46.069Z,15.40
2023-01-18T05:50:18.741Z,14.90
2023-01-18T05:50:51.405Z,16.00
2023-01-18T05:51:24.076Z,15.50
2023-01-18T05:51:56.747Z,15.10
2023-01-18T05:52:29.419Z,16.30
2023-01-18T05:53:02.207Z,15.00
2023-01-18T05:53:34.845Z,12.80
2023-01-18T05:54:07.511Z,15.80
2023-01-18T05:54:40.200Z,15.80
2023-01-18T05:55:12.861Z,14.90
2023-01-18T05:55:45.531Z,14.10
2023-01-18T05:56:18.201Z,15.70
2023-01-18T05:56:50.863Z,14.70
2023-01-18T05:57:21.967Z,13.90
2023-01-18T05:57:54.653Z,15.70
2023-01-18T05:58:27.335Z,13.60
2023-01-18T05:59:00.000Z,14.10
2023-01-18T05:59:32.681Z,12.90
2023-01-18T06:00:05.345Z,16.10
2023-01-18T06:00:38.012Z,13.10
2023-01-18T06:01:10.746Z,15.20
2023-01-18T06:01:43.426Z,14.10
2023-01-18T06:02:16.066Z,15.90
2023-01-18T06:02:48.755Z,14.50
2023-01-18T06:03:21.416Z,12.70
2023-01-18T06:03:54.095Z,14.90
2023-01-18T06:04:26.880Z,14.20
2023-01-18T06:04:59.552Z,14.70
2023-01-18T06:05:32.222Z,14.90
2023-01-18T06:06:04.896Z,15.20
2023-01-18T06:06:37.569Z,14.70
2023-01-18T06:07:10.234Z,14.20
2023-01-18T06:07:42.938Z,16.50
2023-01-18T06:08:15.608Z,14.60
2023-01-18T06:08:48.274Z,15.40
2023-01-18T06:09:20.961Z,15.60
2023-01-18T06:09:52.067Z,13.30
2023-01-18T06:10:24.725Z,14.60
2023-01-18T06:10:57.408Z,14.70
2023-01-18T06:11:30.073Z,15.00
2023-01-18T06:12:02.743Z,16.60
2023-01-18T06:12:35.415Z,13.90
2023-01-18T06:13:08.090Z,14.30
2023-01-18T06:13:40.814Z,15.00
2023-01-18T06:14:13.491Z,15.40
2023-01-18T06:14:46.153Z,14.40
2023-01-18T06:15:18.822Z,16.10
2023-01-18T06:15:51.496Z,13.00
2023-01-18T06:16:24.229Z,12.80
2023-01-18T06:16:56.879Z,13.90
2023-01-18T06:17:29.551Z,14.90
2023-01-18T06:18:02.240Z,13.40
2023-01-18T06:18:34.914Z,15.70
2023-01-18T06:19:07.585Z,13.40
2023-01-18T06:19:40.252Z,14.20
2023-01-18T06:20:12.912Z,12.80
2023-01-18T06:20:45.632Z,12.90
2023-01-18T06:21:18.311Z,12.40
2023-01-18T06:21:50.978Z,14.40
2023-01-18T06:22:23.673Z,12.00
2023-01-18T06:22:56.765Z,12.30
2023-01-18T06:23:23.039Z,16.30
2023-01-18T06:23:55.707Z,12.80
2023-01-18T06:24:28.375Z,13.10
2023-01-18T06:25:01.048Z,14.80
2023-01-18T06:25:33.731Z,16.20
2023-01-18T06:26:06.410Z,12.80
2023-01-18T06:26:39.086Z,15.80
2023-01-18T06:27:11.765Z,12.10
2023-01-18T06:27:44.438Z,16.50
2023-01-18T06:28:17.106Z,13.60
2023-01-18T06:28:49.790Z,15.60
2023-01-18T06:29:22.453Z,14.90
2023-01-18T06:29:55.141Z,15.80
2023-01-18T06:30:27.806Z,12.70
2023-01-18T06:31:00.522Z,15.00
2023-01-18T06:31:33.234Z,13.50
2023-01-18T06:32:05.892Z,10.70
2023-01-18T06:32:38.589Z,12.40
2023-01-18T06:33:11.257Z,14.10
2023-01-18T06:33:43.924Z,13.70
2023-01-18T06:34:16.594Z,12.20
2023-01-18T06:34:49.263Z,12.50
2023-01-18T06:35:21.946Z,12.70
2023-01-18T06:35:54.659Z,14.20
2023-01-18T06:36:27.325Z,13.50
2023-01-18T06:36:59.997Z,13.00
2023-01-18T06:37:32.665Z,13.20
2023-01-18T06:38:05.355Z,11.60
2023-01-18T06:38:38.036Z,12.80
2023-01-18T06:39:10.700Z,12.50
2023-01-18T06:39:43.384Z,12.50
2023-01-18T06:40:16.047Z,11.30
2023-01-18T06:40:48.713Z,11.90
2023-01-18T06:41:21.381Z,11.60
2023-01-18T06:41:54.055Z,11.40
2023-01-18T06:42:26.715Z,14.00
2023-01-18T06:42:59.821Z,14.90
2023-01-18T06:43:26.229Z,13.10
2023-01-18T06:43:58.898Z,12.40
2023-01-18T06:44:31.582Z,12.40
2023-01-18T06:45:04.235Z,13.70
2023-01-18T06:45:36.989Z,13.60
2023-01-18T06:46:09.787Z,13.30
2023-01-18T06:46:42.483Z,12.30
2023-01-18T06:47:15.145Z,10.70
2023-01-18T06:47:47.819Z,12.40
2023-01-18T06:48:20.481Z,12.30
2023-01-18T06:48:53.156Z,11.80
2023-01-18T06:49:25.843Z,12.70
2023-01-18T06:49:58.501Z,10.80
2023-01-18T06:50:31.192Z,11.80
2023-01-18T06:51:03.881Z,11.20
2023-01-18T06:51:36.539Z,13.50
2023-01-18T06:52:09.203Z,10.30
2023-01-18T06:52:41.874Z,11.90
2023-01-18T06:53:14.571Z,12.80
2023-01-18T06:53:47.217Z,11.50
2023-01-18T06:54:19.888Z,10.00
2023-01-18T06:54:52.551Z,14.70
2023-01-18T06:55:25.228Z,11.80
2023-01-18T06:55:57.885Z,13.20
2023-01-18T06:56:30.574Z,12.10
2023-01-18T06:57:03.238Z,12.00
2023-01-18T06:57:35.935Z,12.10
2023-01-18T06:58:08.597Z,11.10
2023-01-18T06:58:41.268Z,13.50
2023-01-18T06:59:13.975Z,14.00
2023-01-18T06:59:46.650Z,11.10